createdAt,value
2017-05-05T00:00:09.943Z,10.57
2017-05-05T00:00:50.444Z,10.48
2017-05-05T00:01:30.941Z,10.54
2017-05-05T00:02:11.465Z,10.44
2017-05-05T00:02:51.957Z,10.44
2017-05-05T00:03:32.473Z,10.57
2017-05-05T00:04:12.929Z,10.51
2017-05-05T00:04:53.442Z,10.54
2017-05-05T00:05:33.939Z,10.57
2017-05-05T00:06:14.415Z,10.59
2017-05-05T00:06:54.944Z,10.56
2017-05-05T00:07:35.461Z,10.51
2017-05-05T00:08:15.934Z,10.54
2017-05-05T00:08:56.433Z,10.54
2017-05-05T00:09:36.890Z,10.57
2017-05-05T00:10:17.390Z,10.51
2017-05-05T00:10:57.962Z,10.56
2017-05-05T00:11:38.453Z,10.51
2017-05-05T00:12:18.943Z,10.57
2017-05-05T00:12:59.634Z,10.53
2017-05-05T00:13:40.158Z,10.56
2017-05-05T00:14:20.600Z,10.56
2017-05-05T00:15:01.075Z,10.49
2017-05-05T00:15:41.548Z,10.57
2017-05-05T00:16:22.067Z,10.48
2017-05-05T00:17:02.578Z,10.63
2017-05-05T00:17:43.032Z,10.54
2017-05-05T00:18:23.565Z,10.57
2017-05-05T00:19:04.031Z,10.63
2017-05-05T00:19:44.556Z,10.57
2017-05-05T00:20:25.055Z,10.59
2017-05-05T00:21:05.511Z,10.59
2017-05-05T00:21:46.012Z,10.63
2017-05-05T00:22:26.491Z,10.6
2017-05-05T00:23:06.992Z,10.6
2017-05-05T00:23:47.481Z,10.57
2017-05-05T00:24:27.949Z,10.56
2017-05-05T00:25:08.445Z,10.56
2017-05-05T00:25:48.954Z,10.56
2017-05-05T00:26:29.450Z,10.59
2017-05-05T00:27:09.914Z,10.61
2017-05-05T00:27:50.437Z,10.59
2017-05-05T00:28:30.913Z,10.59
2017-05-05T00:29:11.411Z,10.49
2017-05-05T00:29:51.951Z,10.56
2017-05-05T00:30:32.422Z,10.63
2017-05-05T00:31:12.908Z,10.57
2017-05-05T00:31:53.433Z,10.49
2017-05-05T00:32:33.931Z,10.53
2017-05-05T00:33:14.417Z,10.54
2017-05-05T00:33:54.907Z,10.63
2017-05-05T00:34:35.363Z,10.6
2017-05-05T00:35:15.847Z,10.61
2017-05-05T00:35:56.353Z,10.57
2017-05-05T00:36:36.832Z,10.64
2017-05-05T00:37:17.330Z,10.67
2017-05-05T00:37:57.788Z,10.54
2017-05-05T00:38:38.277Z,10.64
2017-05-05T00:39:18.794Z,10.64
2017-05-05T00:39:59.263Z,10.63
2017-05-05T00:40:39.784Z,10.6
2017-05-05T00:41:20.255Z,10.61
2017-05-05T00:42:00.715Z,10.57
2017-05-05T00:42:41.217Z,10.6
2017-05-05T00:43:21.680Z,10.63
2017-05-05T00:44:02.152Z,10.57
2017-05-05T00:44:42.650Z,10.6
2017-05-05T00:45:23.149Z,10.61
2017-05-05T00:46:03.632Z,10.6
2017-05-05T00:46:44.126Z,10.54
2017-05-05T00:47:24.638Z,10.51
2017-05-05T00:48:05.132Z,10.57
2017-05-05T00:48:45.620Z,10.59
2017-05-05T00:49:26.120Z,10.56
2017-05-05T00:50:06.603Z,10.57
2017-05-05T00:50:47.082Z,10.56
2017-05-05T00:51:27.568Z,10.59
2017-05-05T00:52:08.025Z,10.61
2017-05-05T00:52:48.524Z,10.57
2017-05-05T00:53:29.000Z,10.51
2017-05-05T00:54:09.515Z,10.6
2017-05-05T00:54:50.020Z,10.53
2017-05-05T00:55:30.490Z,10.48
2017-05-05T00:56:10.977Z,10.53
2017-05-05T00:56:51.496Z,10.48
2017-05-05T00:57:31.996Z,10.56
2017-05-05T00:58:12.475Z,10.57
2017-05-05T00:58:52.961Z,10.54
2017-05-05T00:59:33.435Z,10.46
2017-05-05T01:00:13.907Z,10.53
2017-05-05T01:00:54.446Z,10.53
2017-05-05T01:01:34.928Z,10.48
2017-05-05T01:02:15.427Z,10.54
2017-05-05T01:02:55.895Z,10.54
2017-05-05T01:03:36.384Z,10.56
2017-05-05T01:04:16.909Z,10.54
2017-05-05T01:04:57.401Z,10.51
2017-05-05T01:05:37.858Z,10.6
2017-05-05T01:06:18.433Z,10.56
2017-05-05T01:06:58.908Z,10.49
2017-05-05T01:07:39.433Z,10.59
2017-05-05T01:08:19.898Z,10.51
2017-05-05T01:09:00.363Z,10.48
2017-05-05T01:09:40.862Z,10.54
2017-05-05T01:10:21.310Z,10.48
2017-05-05T01:11:01.789Z,10.46
2017-05-05T01:11:42.260Z,10.51
2017-05-05T01:12:22.759Z,10.48
2017-05-05T01:13:03.273Z,10.48
2017-05-05T01:13:43.718Z,10.48
2017-05-05T01:14:24.196Z,10.53
2017-05-05T01:15:04.748Z,10.42
2017-05-05T01:15:45.197Z,10.54
2017-05-05T01:16:25.683Z,10.44
2017-05-05T01:17:06.181Z,10.44
2017-05-05T01:17:46.631Z,10.51
2017-05-05T01:18:27.143Z,10.51
2017-05-05T01:19:07.633Z,10.48
2017-05-05T01:19:48.130Z,10.44
2017-05-05T01:20:28.622Z,10.42
2017-05-05T01:21:09.150Z,10.42
2017-05-05T01:21:49.622Z,10.46
2017-05-05T01:22:30.096Z,10.48
2017-05-05T01:23:10.594Z,10.33
2017-05-05T01:23:51.063Z,10.48
2017-05-05T01:24:31.522Z,10.46
2017-05-05T01:25:12.007Z,10.49
2017-05-05T01:25:52.523Z,10.46
2017-05-05T01:26:32.992Z,10.44
2017-05-05T01:27:13.507Z,10.4
2017-05-05T01:27:54.022Z,10.44
2017-05-05T01:28:34.494Z,10.48
2017-05-05T01:29:14.972Z,10.37
2017-05-05T01:29:55.463Z,10.33
2017-05-05T01:30:35.976Z,10.35
2017-05-05T01:31:16.509Z,10.4
2017-05-05T01:31:56.979Z,10.35
2017-05-05T01:32:37.517Z,10.34
2017-05-05T01:33:17.983Z,10.44
2017-05-05T01:33:58.480Z,10.34
2017-05-05T01:34:38.959Z,10.38
2017-05-05T01:35:19.434Z,10.4
2017-05-05T01:35:59.962Z,10.42
2017-05-05T01:36:40.449Z,10.42
2017-05-05T01:37:20.950Z,10.42
2017-05-05T01:38:01.414Z,10.46
2017-05-05T01:38:41.907Z,10.34
2017-05-05T01:39:22.415Z,10.41
2017-05-05T01:40:02.908Z,10.35
2017-05-05T01:40:43.397Z,10.34
2017-05-05T01:41:23.903Z,10.37
2017-05-05T01:42:04.404Z,10.4
2017-05-05T01:42:44.865Z,10.37
2017-05-05T01:43:25.367Z,10.46
2017-05-05T01:44:05.821Z,10.35
2017-05-05T01:44:46.315Z,10.33
2017-05-05T01:45:26.820Z,10.37
2017-05-05T01:46:07.258Z,10.35
2017-05-05T01:46:47.749Z,10.31
2017-05-05T01:47:28.218Z,10.33
2017-05-05T01:48:08.727Z,10.4
2017-05-05T01:48:49.196Z,10.35
2017-05-05T01:49:29.668Z,10.38
2017-05-05T01:50:10.161Z,10.37
2017-05-05T01:50:50.663Z,10.31
2017-05-05T01:51:31.164Z,10.33
2017-05-05T01:52:11.685Z,10.33
2017-05-05T01:52:52.148Z,10.33
2017-05-05T01:53:32.651Z,10.33
2017-05-05T01:54:13.161Z,10.35
2017-05-05T01:54:53.633Z,10.35
2017-05-05T01:55:34.134Z,10.37
2017-05-05T01:56:14.622Z,10.2
2017-05-05T01:56:55.136Z,10.26
2017-05-05T01:57:35.613Z,10.26
2017-05-05T01:58:16.146Z,10.28
2017-05-05T01:58:56.601Z,10.28
2017-05-05T01:59:37.088Z,10.17
2017-05-05T02:00:17.575Z,10.2
2017-05-05T02:00:58.095Z,10.25
2017-05-05T02:01:38.592Z,10.23
2017-05-05T02:02:19.084Z,10.2
2017-05-05T02:02:59.764Z,10.26
2017-05-05T02:03:40.211Z,10.25
2017-05-05T02:04:20.723Z,10.26
2017-05-05T02:05:01.193Z,10.23
2017-05-05T02:05:41.711Z,10.25
2017-05-05T02:06:22.177Z,10.22
2017-05-05T02:08:02.531Z,10.17
2017-05-05T02:09:42.005Z,10.25
2017-05-05T02:10:23.516Z,10.22
2017-05-05T02:11:03.710Z,10.25
2017-05-05T02:11:44.199Z,10.25
2017-05-05T02:12:24.673Z,10.23
2017-05-05T02:13:05.169Z,10.3
2017-05-05T02:13:45.652Z,10.17
2017-05-05T02:14:26.143Z,10.19
2017-05-05T02:15:06.635Z,10.15
2017-05-05T02:15:47.106Z,10.16
2017-05-05T02:16:27.660Z,10.1
2017-05-05T02:17:08.138Z,10.15
2017-05-05T02:17:48.598Z,10.13
2017-05-05T02:18:29.084Z,10.12
2017-05-05T02:19:09.585Z,10.1
2017-05-05T02:19:50.048Z,10.23
2017-05-05T02:20:30.519Z,10.12
2017-05-05T02:21:10.984Z,10.12
2017-05-05T02:21:51.448Z,10.09
2017-05-05T02:22:31.936Z,10.15
2017-05-05T02:23:12.443Z,10.1
2017-05-05T02:23:52.905Z,10.16
2017-05-05T02:24:33.442Z,10.09
2017-05-05T02:25:13.922Z,10.16
2017-05-05T02:25:54.418Z,10.19
2017-05-05T02:26:34.914Z,10.09
2017-05-05T02:27:15.408Z,10.13
2017-05-05T02:27:55.937Z,10.13
2017-05-05T02:28:36.396Z,10.13
2017-05-05T02:29:16.888Z,10.13
2017-05-05T02:29:57.397Z,10.16
2017-05-05T02:30:37.872Z,10.13
2017-05-05T02:31:18.401Z,10.15
2017-05-05T02:31:58.849Z,10.16
2017-05-05T02:32:39.326Z,10.09
2017-05-05T02:33:19.831Z,10.16
2017-05-05T02:34:00.320Z,10.05
2017-05-05T02:34:40.819Z,10.04
2017-05-05T02:35:21.297Z,10.1
2017-05-05T02:36:01.787Z,10.13
2017-05-05T02:36:42.301Z,10.04
2017-05-05T02:37:22.795Z,10.09
2017-05-05T02:38:03.285Z,10.12
2017-05-05T02:38:43.743Z,10.12
2017-05-05T02:40:44.100Z,10.09
2017-05-05T02:41:25.738Z,9.95
2017-05-05T02:42:05.860Z,9.98
2017-05-05T02:42:46.347Z,9.95
2017-05-05T02:43:26.811Z,9.98
2017-05-05T02:44:07.313Z,9.99
2017-05-05T02:44:47.764Z,10.04
2017-05-05T02:45:28.227Z,10.07
2017-05-05T02:46:08.709Z,10.01
2017-05-05T02:46:49.210Z,9.91
2017-05-05T02:47:29.684Z,10.02
2017-05-05T02:48:10.187Z,9.92
2017-05-05T02:48:50.667Z,10.01
2017-05-05T02:49:31.151Z,9.98
2017-05-05T02:50:11.617Z,10.02
2017-05-05T02:50:52.126Z,9.98
2017-05-05T02:51:32.603Z,10.01
2017-05-05T02:52:13.098Z,10.01
2017-05-05T02:52:53.608Z,9.99
2017-05-05T02:53:34.084Z,10.01
2017-05-05T02:54:14.559Z,9.98
2017-05-05T02:54:55.049Z,10.01
2017-05-05T02:55:35.549Z,9.98
2017-05-05T02:56:16.032Z,9.95
2017-05-05T02:56:56.513Z,9.95
2017-05-05T02:57:37.044Z,9.97
2017-05-05T02:58:17.484Z,9.99
2017-05-05T02:58:57.972Z,9.97
2017-05-05T02:59:38.435Z,9.94
2017-05-05T03:00:18.953Z,9.91
2017-05-05T03:00:59.426Z,9.86
2017-05-05T03:01:39.899Z,9.92
2017-05-05T03:02:20.391Z,9.87
2017-05-05T03:03:00.868Z,9.94
2017-05-05T03:03:41.380Z,9.91
2017-05-05T03:04:21.841Z,9.97
2017-05-05T03:05:02.316Z,9.87
2017-05-05T03:05:42.803Z,9.97
2017-05-05T03:06:23.308Z,9.92
2017-05-05T03:07:03.791Z,9.87
2017-05-05T03:07:44.235Z,9.92
2017-05-05T03:08:24.732Z,9.89
2017-05-05T03:09:05.239Z,9.92
2017-05-05T03:09:45.732Z,9.74
2017-05-05T03:10:26.178Z,9.94
2017-05-05T03:11:06.742Z,9.8
2017-05-05T03:11:47.160Z,9.84
2017-05-05T03:12:27.629Z,9.76
2017-05-05T03:13:08.137Z,9.76
2017-05-05T03:13:48.622Z,9.76
2017-05-05T03:14:29.111Z,9.79
2017-05-05T03:15:09.583Z,9.8
2017-05-05T03:15:50.053Z,9.82
2017-05-05T03:16:30.528Z,9.8
2017-05-05T03:17:11.030Z,9.83
2017-05-05T03:17:51.530Z,9.8
2017-05-05T03:18:32.025Z,9.72
2017-05-05T03:19:12.484Z,9.79
2017-05-05T03:19:52.981Z,9.79
2017-05-05T03:20:33.522Z,9.72
2017-05-05T03:21:14.020Z,9.73
2017-05-05T03:21:54.502Z,9.76
2017-05-05T03:22:34.998Z,9.69
2017-05-05T03:23:15.480Z,9.69
2017-05-05T03:23:55.974Z,9.74
2017-05-05T03:24:36.455Z,9.66
2017-05-05T03:25:16.935Z,9.74
2017-05-05T03:25:57.435Z,9.69
2017-05-05T03:26:37.962Z,9.68
2017-05-05T03:27:18.476Z,9.74
2017-05-05T03:27:58.912Z,9.69
2017-05-05T03:28:39.370Z,9.72
2017-05-05T03:29:19.888Z,9.73
2017-05-05T03:30:00.351Z,9.65
2017-05-05T03:30:40.816Z,9.69
2017-05-05T03:31:21.286Z,9.72
2017-05-05T03:32:01.841Z,9.76
2017-05-05T03:32:42.330Z,9.72
2017-05-05T03:33:22.831Z,9.68
2017-05-05T03:34:03.319Z,9.74
2017-05-05T03:34:43.804Z,9.72
2017-05-05T03:35:24.266Z,9.72
2017-05-05T03:36:04.756Z,9.74
2017-05-05T03:36:45.234Z,9.74
2017-05-05T03:37:25.722Z,9.76
2017-05-05T03:38:06.228Z,9.76
2017-05-05T03:38:46.696Z,9.77
2017-05-05T03:39:27.200Z,9.8
2017-05-05T03:40:07.692Z,9.69
2017-05-05T03:40:48.202Z,9.69
2017-05-05T03:41:28.669Z,9.76
2017-05-05T03:42:09.215Z,9.65
2017-05-05T03:42:49.692Z,9.82
2017-05-05T03:43:30.170Z,9.74
2017-05-05T03:44:10.617Z,9.74
2017-05-05T03:44:51.082Z,9.8
2017-05-05T03:45:31.584Z,9.79
2017-05-05T03:46:12.118Z,9.8
2017-05-05T03:46:52.585Z,9.82
2017-05-05T03:47:33.090Z,9.79
2017-05-05T03:48:13.582Z,9.72
2017-05-05T03:48:54.089Z,9.73
2017-05-05T03:49:34.529Z,9.74
2017-05-05T03:50:15.033Z,9.68
2017-05-05T03:50:55.511Z,9.76
2017-05-05T03:51:36.012Z,9.73
2017-05-05T03:52:16.526Z,9.77
2017-05-05T03:52:57.016Z,9.69
2017-05-05T03:53:37.498Z,9.74
2017-05-05T03:54:17.984Z,9.68
2017-05-05T03:54:58.468Z,9.77
2017-05-05T03:55:38.965Z,9.72
2017-05-05T03:56:19.472Z,9.79
2017-05-05T03:56:59.975Z,9.74
2017-05-05T03:57:40.472Z,9.73
2017-05-05T03:58:20.988Z,9.84
2017-05-05T03:59:01.456Z,9.8
2017-05-05T03:59:41.939Z,9.74
2017-05-05T04:00:22.454Z,9.77
2017-05-05T04:01:02.941Z,9.74
2017-05-05T04:01:43.424Z,9.74
2017-05-05T04:02:23.998Z,9.8
2017-05-05T04:03:04.439Z,9.73
2017-05-05T04:03:44.942Z,9.72
2017-05-05T04:04:25.444Z,9.74
2017-05-05T04:05:05.975Z,9.72
2017-05-05T04:05:46.444Z,9.76
2017-05-05T04:06:26.951Z,9.73
2017-05-05T04:07:07.446Z,9.77
2017-05-05T04:07:47.952Z,9.68
2017-05-05T04:08:28.435Z,9.86
2017-05-05T04:09:08.954Z,9.8
2017-05-05T04:09:49.426Z,9.79
2017-05-05T04:10:29.926Z,9.79
2017-05-05T04:11:10.419Z,9.77
2017-05-05T04:11:50.885Z,9.84
2017-05-05T04:12:31.402Z,9.87
2017-05-05T04:13:11.916Z,9.73
2017-05-05T04:13:52.418Z,9.79
2017-05-05T04:14:33.005Z,9.82
2017-05-05T04:15:13.461Z,9.86
2017-05-05T04:15:53.989Z,9.84
2017-05-05T04:16:34.470Z,9.84
2017-05-05T04:17:15.127Z,9.87
2017-05-05T04:17:55.685Z,9.94
2017-05-05T04:18:36.166Z,9.87
2017-05-05T04:19:16.746Z,9.87
2017-05-05T04:19:57.224Z,9.86
2017-05-05T04:20:37.732Z,9.92
2017-05-05T04:21:18.251Z,9.95
2017-05-05T04:21:58.837Z,9.83
2017-05-05T04:22:39.359Z,9.87
2017-05-05T04:23:19.895Z,9.91
2017-05-05T04:24:00.419Z,9.91
2017-05-05T04:24:40.952Z,9.92
2017-05-05T04:25:22.371Z,9.86
2017-05-05T04:26:02.901Z,9.92
2017-05-05T04:26:43.414Z,9.89
2017-05-05T04:27:23.937Z,9.92
2017-05-05T04:28:04.477Z,9.92
2017-05-05T04:28:46.096Z,9.97
2017-05-05T04:29:26.626Z,9.98
2017-05-05T04:30:07.117Z,9.89
2017-05-05T04:30:47.595Z,9.92
2017-05-05T04:31:28.113Z,9.87
2017-05-05T04:32:08.654Z,10.02
2017-05-05T04:32:49.228Z,9.97
2017-05-05T04:33:29.713Z,9.98
2017-05-05T04:34:10.214Z,9.97
2017-05-05T04:34:50.688Z,9.97
2017-05-05T04:35:31.225Z,10.09
2017-05-05T04:36:11.715Z,10.13
2017-05-05T04:36:52.192Z,10.13
2017-05-05T04:37:32.673Z,10.17
2017-05-05T04:38:13.182Z,10.16
2017-05-05T04:38:53.683Z,10.19
2017-05-05T04:39:34.184Z,10.17
2017-05-05T04:40:14.695Z,10.13
2017-05-05T04:40:55.198Z,10.2
2017-05-05T04:41:35.693Z,10.2
2017-05-05T04:42:16.172Z,10.3
2017-05-05T04:42:56.642Z,10.23
2017-05-05T04:43:37.169Z,10.23
2017-05-05T04:44:17.680Z,10.19
2017-05-05T04:44:58.182Z,10.22
2017-05-05T04:45:38.653Z,10.23
2017-05-05T04:46:19.135Z,10.28
2017-05-05T04:46:59.683Z,10.33
2017-05-05T04:47:40.198Z,10.31
2017-05-05T04:48:20.698Z,10.28
2017-05-05T04:49:01.184Z,10.22
2017-05-05T04:49:41.701Z,10.26
2017-05-05T04:50:22.191Z,10.28
2017-05-05T04:51:02.683Z,10.37
2017-05-05T04:51:43.171Z,10.33
2017-05-05T04:52:23.656Z,10.33
2017-05-05T04:53:05.701Z,10.25
2017-05-05T04:53:46.201Z,10.22
2017-05-05T04:54:26.701Z,10.31
2017-05-05T04:55:07.185Z,10.34
2017-05-05T04:55:48.280Z,10.23
2017-05-05T04:56:30.357Z,10.25
2017-05-05T04:57:10.873Z,10.26
2017-05-05T04:57:51.380Z,10.28
2017-05-05T04:58:31.894Z,10.34
2017-05-05T04:59:12.390Z,10.26
2017-05-05T04:59:52.900Z,10.26
2017-05-05T05:00:33.439Z,10.2
2017-05-05T05:01:13.951Z,10.26
2017-05-05T05:01:54.410Z,10.25
2017-05-05T05:02:34.963Z,10.33
2017-05-05T05:03:15.453Z,10.26
2017-05-05T05:03:55.964Z,10.3
2017-05-05T05:04:36.450Z,10.33
2017-05-05T05:05:16.965Z,10.22
2017-05-05T05:05:57.580Z,10.25
2017-05-05T05:06:38.068Z,10.28
2017-05-05T05:07:18.603Z,10.22
2017-05-05T05:07:59.145Z,10.28
2017-05-05T05:08:39.766Z,10.28
2017-05-05T05:09:20.305Z,10.33
2017-05-05T05:10:00.803Z,10.22
2017-05-05T05:10:41.260Z,10.22
2017-05-05T05:11:21.741Z,10.26
2017-05-05T05:12:02.213Z,10.16
2017-05-05T05:12:42.712Z,10.13
2017-05-05T05:13:23.191Z,10.12
2017-05-05T05:15:01.518Z,10.15
2017-05-05T05:15:42.749Z,10.09
2017-05-05T05:16:23.289Z,10.15
2017-05-05T05:17:03.835Z,10.2
2017-05-05T05:17:44.287Z,10.1
2017-05-05T05:18:24.752Z,10.13
2017-05-05T05:19:05.259Z,10.1
2017-05-05T05:19:45.733Z,10.15
2017-05-05T05:20:26.235Z,10.17
2017-05-05T05:21:06.732Z,10.13
2017-05-05T05:21:47.253Z,10.09
2017-05-05T05:22:27.737Z,10.1
2017-05-05T05:23:08.252Z,10.22
2017-05-05T05:23:48.752Z,10.22
2017-05-05T05:24:29.226Z,10.13
2017-05-05T05:25:09.702Z,10.13
2017-05-05T05:25:50.207Z,10.09
2017-05-05T05:26:30.703Z,10.12
2017-05-05T05:27:11.230Z,10.15
2017-05-05T05:27:51.731Z,10.16
2017-05-05T05:28:32.289Z,10.09
2017-05-05T05:29:12.766Z,10.09
2017-05-05T05:29:53.283Z,10.26
2017-05-05T05:30:33.769Z,10.2
2017-05-05T05:31:14.319Z,10.12
2017-05-05T05:31:54.806Z,10.16
2017-05-05T05:32:35.264Z,10.17
2017-05-05T05:33:15.755Z,10.17
2017-05-05T05:33:56.232Z,10.26
2017-05-05T05:34:36.712Z,10.22
2017-05-05T05:35:17.230Z,10.26
2017-05-05T05:35:57.718Z,10.3
2017-05-05T05:36:38.210Z,10.28
2017-05-05T05:37:18.737Z,10.25
2017-05-05T05:37:59.227Z,10.26
2017-05-05T05:38:39.835Z,10.26
2017-05-05T05:39:20.372Z,10.38
2017-05-05T05:40:00.857Z,10.35
2017-05-05T05:40:41.351Z,10.25
2017-05-05T05:41:21.861Z,10.34
2017-05-05T05:42:03.019Z,10.3
2017-05-05T05:42:43.509Z,10.44
2017-05-05T05:43:24.102Z,10.44
2017-05-05T05:44:04.610Z,10.46
2017-05-05T05:44:45.112Z,10.37
2017-05-05T05:45:25.692Z,10.41
2017-05-05T05:46:06.132Z,10.46
2017-05-05T05:46:46.600Z,10.35
2017-05-05T05:47:27.104Z,10.41
2017-05-05T05:48:07.581Z,10.46
2017-05-05T05:48:48.084Z,10.46
2017-05-05T05:49:28.624Z,10.48
2017-05-05T05:50:09.107Z,10.49
2017-05-05T05:50:49.592Z,10.51
2017-05-05T05:51:30.129Z,10.48
2017-05-05T05:52:10.620Z,10.48
2017-05-05T05:52:51.121Z,10.44
2017-05-05T05:53:31.622Z,10.48
2017-05-05T05:54:12.099Z,10.44
2017-05-05T05:54:52.605Z,10.6
2017-05-05T05:55:33.186Z,10.56
2017-05-05T05:56:13.659Z,10.56
2017-05-05T05:56:54.164Z,10.63
2017-05-05T05:57:34.712Z,10.57
2017-05-05T05:58:15.210Z,10.67
2017-05-05T05:58:55.767Z,10.63
2017-05-05T05:59:36.287Z,10.63
2017-05-05T06:00:16.801Z,10.68
2017-05-05T06:00:57.321Z,10.74
2017-05-05T06:01:37.856Z,10.71
2017-05-05T06:02:18.349Z,10.76
2017-05-05T06:02:58.827Z,10.79
2017-05-05T06:03:39.314Z,10.78
2017-05-05T06:04:19.827Z,10.87
2017-05-05T06:05:00.343Z,10.86
2017-05-05T06:05:40.900Z,10.89
2017-05-05T06:06:21.315Z,10.84
2017-05-05T06:07:01.841Z,10.9
2017-05-05T06:07:42.319Z,11.04
2017-05-05T06:08:22.833Z,11
2017-05-05T06:09:03.311Z,11.12
2017-05-05T06:09:43.808Z,11.12
2017-05-05T06:10:24.314Z,11.17
2017-05-05T06:11:04.944Z,11.18
2017-05-05T06:11:45.639Z,11.18
2017-05-05T06:12:26.224Z,11.25
2017-05-05T06:13:06.726Z,11.26
2017-05-05T06:13:47.238Z,11.3
2017-05-05T06:14:27.740Z,11.26
2017-05-05T06:15:08.250Z,11.25
2017-05-05T06:15:48.753Z,11.27
2017-05-05T06:16:29.258Z,11.19
2017-05-05T06:17:09.788Z,11.29
2017-05-05T06:17:50.250Z,11.32
2017-05-05T06:18:30.747Z,11.27
2017-05-05T06:19:11.249Z,11.43
2017-05-05T06:19:51.716Z,11.43
2017-05-05T06:20:32.217Z,11.4
2017-05-05T06:21:12.733Z,11.54
2017-05-05T06:21:53.275Z,11.5
2017-05-05T06:22:33.785Z,11.62
2017-05-05T06:23:14.286Z,11.65
2017-05-05T06:23:54.891Z,11.69
2017-05-05T06:24:35.428Z,11.73
2017-05-05T06:25:15.955Z,11.68
2017-05-05T06:25:56.497Z,11.73
2017-05-05T06:26:37.025Z,11.73
2017-05-05T06:27:17.502Z,11.69
2017-05-05T06:27:57.971Z,11.78
2017-05-05T06:28:38.495Z,11.81
2017-05-05T06:29:19.020Z,11.87
2017-05-05T06:29:59.480Z,11.9
2017-05-05T06:30:39.980Z,11.87
2017-05-05T06:31:20.714Z,11.88
2017-05-05T06:32:01.232Z,12.03
2017-05-05T06:32:41.825Z,12
2017-05-05T06:33:22.360Z,12.04
2017-05-05T06:34:02.870Z,12.12
2017-05-05T06:34:43.818Z,12.24
2017-05-05T06:35:24.327Z,12.28
2017-05-05T06:36:04.828Z,12.21
2017-05-05T06:36:45.302Z,12.21
2017-05-05T06:37:25.771Z,12.25
2017-05-05T06:38:06.374Z,12.24
2017-05-05T06:38:46.845Z,12.2
2017-05-05T06:39:27.360Z,12.09
2017-05-05T06:40:08.872Z,12.12
2017-05-05T06:40:49.419Z,12.12
2017-05-05T06:41:29.968Z,12.13
2017-05-05T06:42:10.450Z,12.15
2017-05-05T06:42:51.030Z,12.15
2017-05-05T06:43:31.519Z,12.15
2017-05-05T06:44:12.184Z,12.12
2017-05-05T06:44:52.696Z,12.15
2017-05-05T06:45:33.189Z,12.12
2017-05-05T06:46:13.697Z,12.21
2017-05-05T06:46:54.234Z,12.22
2017-05-05T06:47:34.689Z,12.27
2017-05-05T06:48:15.176Z,12.22
2017-05-05T06:48:55.681Z,12.18
2017-05-05T06:49:36.189Z,12.22
2017-05-05T06:50:16.752Z,12.13
2017-05-05T06:50:57.230Z,12.21
2017-05-05T06:51:37.742Z,12.22
2017-05-05T06:52:19.130Z,12.1
2017-05-05T06:52:59.631Z,12.22
2017-05-05T06:53:40.173Z,12.18
2017-05-05T06:54:20.629Z,12.17
2017-05-05T06:55:01.384Z,12.22
2017-05-05T06:55:41.969Z,12.22
2017-05-05T06:56:22.583Z,12.18
2017-05-05T06:57:03.167Z,12.1
2017-05-05T06:57:43.672Z,12.12
2017-05-05T06:58:24.261Z,12.1
2017-05-05T06:59:04.760Z,12.15
2017-05-05T06:59:45.266Z,12.06
2017-05-05T07:00:25.757Z,12.1
2017-05-05T07:01:06.306Z,12.04
2017-05-05T07:03:07.280Z,12.06
2017-05-05T07:03:55.001Z,11.99
2017-05-05T07:04:43.767Z,12.07
2017-05-05T07:05:27.534Z,12.07
2017-05-05T07:06:07.338Z,12.09
2017-05-05T07:06:48.235Z,12.13
2017-05-05T07:07:28.695Z,12.09
2017-05-05T07:08:09.245Z,12.15
2017-05-05T07:08:49.807Z,12.15
2017-05-05T07:09:30.285Z,12.07
2017-05-05T07:10:10.752Z,12.13
2017-05-05T07:10:51.287Z,12.12
2017-05-05T07:11:31.716Z,12.04
2017-05-05T07:12:12.320Z,12.18
2017-05-05T07:12:52.907Z,12.17
2017-05-05T07:13:33.462Z,12.21
2017-05-05T07:14:13.932Z,12.21
2017-05-05T07:14:54.432Z,12.22
2017-05-05T07:15:34.899Z,12.18
2017-05-05T07:16:15.439Z,12.22
2017-05-05T07:16:55.891Z,12.2
2017-05-05T07:17:36.345Z,12.09
2017-05-05T07:18:16.852Z,12.09
2017-05-05T07:18:57.346Z,12.18
2017-05-05T07:19:37.827Z,12.21
2017-05-05T07:20:19.734Z,12.31
2017-05-05T07:21:04.350Z,12.47
2017-05-05T07:21:46.200Z,12.5
2017-05-05T07:22:26.676Z,12.7
2017-05-05T07:23:07.167Z,12.68
2017-05-05T07:23:47.672Z,12.6
2017-05-05T07:24:28.204Z,12.76
2017-05-05T07:25:08.717Z,12.68
2017-05-05T07:25:49.179Z,12.72
2017-05-05T07:26:31.195Z,12.85
2017-05-05T07:27:11.667Z,12.94
2017-05-05T07:28:04.563Z,12.94
2017-05-05T07:28:44.391Z,13
2017-05-05T07:29:24.928Z,13.01
2017-05-05T07:30:05.388Z,13.15
2017-05-05T07:30:45.886Z,13.11
2017-05-05T07:31:26.395Z,13.2
2017-05-05T07:32:06.862Z,13.23
2017-05-05T07:32:47.370Z,13.23
2017-05-05T07:33:27.869Z,13.23
2017-05-05T07:34:08.640Z,13.27
2017-05-05T07:34:49.102Z,13.27
2017-05-05T07:35:29.599Z,13.25
2017-05-05T07:36:10.180Z,13.39
2017-05-05T07:36:50.667Z,13.44
2017-05-05T07:37:36.148Z,13.53
2017-05-05T07:38:27.726Z,13.63
2017-05-05T07:39:17.903Z,13.65
2017-05-05T07:41:51.024Z,13.83
2017-05-05T07:42:41.411Z,13.92
2017-05-05T07:43:27.493Z,14.12
2017-05-05T07:44:17.559Z,14.15
2017-05-05T07:45:05.209Z,14.08
2017-05-05T07:45:50.734Z,14.17
2017-05-05T07:46:34.340Z,14.37
2017-05-05T07:47:14.778Z,14.26
2017-05-05T07:47:55.390Z,14.29
2017-05-05T07:48:35.901Z,14.29
2017-05-05T07:49:16.361Z,14.43
2017-05-05T07:49:56.843Z,14.32
2017-05-05T07:50:37.353Z,14.32
2017-05-05T07:51:17.891Z,14.33
2017-05-05T07:51:58.417Z,14.26
2017-05-05T07:52:38.896Z,14.37
2017-05-05T07:53:19.389Z,14.29
2017-05-05T07:53:59.919Z,14.28
2017-05-05T07:54:40.429Z,14.23
2017-05-05T07:55:20.876Z,14.32
2017-05-05T07:56:01.376Z,14.32
2017-05-05T07:56:47.521Z,14.37
2017-05-05T07:57:33.689Z,14.41
2017-05-05T07:58:17.651Z,14.41
2017-05-05T07:58:58.140Z,14.28
2017-05-05T07:59:38.592Z,14.35
2017-05-05T08:00:19.059Z,14.53
2017-05-05T08:00:59.699Z,14.5
2017-05-05T08:01:40.214Z,14.53
2017-05-05T08:02:20.653Z,14.58
2017-05-05T08:03:01.127Z,14.59
2017-05-05T08:03:41.963Z,14.58
2017-05-05T08:04:22.463Z,14.6
2017-05-05T08:05:02.966Z,14.62
2017-05-05T08:05:43.479Z,14.69
2017-05-05T08:06:23.945Z,14.73
2017-05-05T08:07:04.437Z,14.7
2017-05-05T08:07:44.933Z,14.55
2017-05-05T08:08:25.477Z,14.72
2017-05-05T08:09:05.853Z,14.7
2017-05-05T08:09:47.636Z,14.77
2017-05-05T08:10:28.118Z,14.69
2017-05-05T08:11:08.643Z,14.65
2017-05-05T08:11:49.119Z,14.65
2017-05-05T08:12:30.230Z,14.65
2017-05-05T08:13:10.737Z,14.79
2017-05-05T08:13:51.242Z,14.84
2017-05-05T08:14:33.134Z,14.77
2017-05-05T08:15:13.832Z,14.81
2017-05-05T08:15:55.184Z,14.78
2017-05-05T08:16:35.644Z,14.6
2017-05-05T08:17:16.088Z,14.54
2017-05-05T08:17:57.552Z,14.51
2017-05-05T08:18:38.040Z,14.58
2017-05-05T08:19:18.584Z,14.48
2017-05-05T08:19:59.087Z,14.59
2017-05-05T08:20:42.223Z,14.7
2017-05-05T08:21:22.878Z,14.59
2017-05-05T08:22:03.352Z,14.6
2017-05-05T08:22:43.906Z,14.6
2017-05-05T08:23:25.171Z,14.62
2017-05-05T08:24:05.509Z,14.48
2017-05-05T08:24:45.954Z,14.45
2017-05-05T08:25:26.479Z,14.48
2017-05-05T08:26:06.990Z,14.54
2017-05-05T08:26:47.501Z,14.4
2017-05-05T08:27:28.504Z,14.53
2017-05-05T08:28:09.171Z,14.63
2017-05-05T08:28:49.645Z,14.69
2017-05-05T08:29:30.926Z,14.68
2017-05-05T08:30:11.529Z,14.62
2017-05-05T08:30:52.641Z,14.77
2017-05-05T08:31:32.456Z,14.62
2017-05-05T08:32:13.069Z,14.66
2017-05-05T08:32:53.527Z,14.66
2017-05-05T08:33:34.211Z,14.78
2017-05-05T08:34:15.286Z,14.89
2017-05-05T08:34:55.845Z,14.97
2017-05-05T08:35:36.265Z,15.04
2017-05-05T08:36:16.794Z,15.14
2017-05-05T08:36:57.607Z,15.24
2017-05-05T08:37:38.173Z,15.14
2017-05-05T08:38:18.651Z,15.21
2017-05-05T08:38:59.195Z,15.24
2017-05-05T08:39:40.708Z,15.21
2017-05-05T08:40:22.890Z,15.22
2017-05-05T08:41:03.431Z,15.24
2017-05-05T08:41:43.869Z,15.31
2017-05-05T08:42:24.376Z,15.29
2017-05-05T08:43:04.923Z,15.36
2017-05-05T08:43:45.455Z,15.36
2017-05-05T08:44:25.908Z,15.44
2017-05-05T08:45:13.448Z,15.52
2017-05-05T08:45:54.102Z,15.58
2017-05-05T08:46:35.791Z,15.72
2017-05-05T08:47:16.308Z,15.72
2017-05-05T08:47:56.751Z,15.77
2017-05-05T08:48:37.274Z,15.82
2017-05-05T08:49:17.737Z,15.9
2017-05-05T08:49:58.657Z,15.94
2017-05-05T08:50:39.212Z,15.94
2017-05-05T08:51:19.689Z,16.02
2017-05-05T08:52:00.879Z,16.08
2017-05-05T08:52:41.307Z,16.12
2017-05-05T08:53:21.901Z,16.2
2017-05-05T08:54:02.399Z,16.26
2017-05-05T08:54:42.910Z,16.29
2017-05-05T08:55:23.631Z,16.24
2017-05-05T08:56:04.124Z,16.21
2017-05-05T08:56:44.621Z,16.26